Time;durP1;ratioP1;P1;durP2;ratioP2;P2;SDS_P1;SDS_P2;PMS_P1;PMS_P2;Temp;Humidity;BMP_temperature;BMP_pressure;BME280_temperature;BME280_humidity;BME280_pressure;Samples;Min_cycle;Max_cycle;Signal;HPM_P1;HPM_P2
2022/06/16 00:08:39;;;;;;;;;;;21.50;54.40;;;;;;20736497;28;19917;-78
2022/06/16 00:18:39;;;;;;;;;;;21.40;54.40;;;;;;20711977;28;19918;-77
2022/06/16 00:28:40;;;;;;;;;;;21.40;54.40;;;;;;20669993;28;20011;-80
2022/06/16 00:38:41;;;;;;;;;;;21.40;54.50;;;;;;20732776;28;19917;-80
2022/06/16 00:48:46;;;;;;;;;;;21.40;54.50;;;;;;20799530;28;20374;-79
2022/06/16 00:58:47;;;;;;;;;;;21.40;54.50;;;;;;20768814;28;19944;-78
2022/06/16 01:08:48;;;;;;;;;;;21.40;54.50;;;;;;20739786;28;19924;-77
2022/06/16 01:19:14;;;;;;;;;;;21.40;54.50;;;;;;20747118;28;19924;-79
2022/06/16 01:29:33;;;;;;;;;;;21.40;54.50;;;;;;20730812;28;19967;-78
2022/06/16 01:39:36;;;;;;;;;;;21.40;54.50;;;;;;20793770;28;19917;-82
2022/06/16 01:49:38;;;;;;;;;;;21.30;54.50;;;;;;20762441;28;20303;-78
2022/06/16 01:59:41;;;;;;;;;;;21.30;54.50;;;;;;20728778;28;19917;-78
2022/06/16 02:09:42;;;;;;;;;;;21.30;54.50;;;;;;20729397;28;19917;-78
2022/06/16 02:19:45;;;;;;;;;;;21.20;54.50;;;;;;20746665;28;19921;-79
2022/06/16 02:29:46;;;;;;;;;;;21.30;54.50;;;;;;20712565;28;19924;-78
2022/06/16 02:40:05;;;;;;;;;;;21.30;54.60;;;;;;20738438;28;19932;-79
2022/06/16 02:50:06;;;;;;;;;;;21.30;54.60;;;;;;20678652;28;19960;-79
2022/06/16 03:00:13;;;;;;;;;;;21.30;54.60;;;;;;20771529;28;19924;-78
2022/06/16 03:10:50;;;;;;;;;;;21.20;54.50;;;;;;20748008;28;19918;-78
2022/06/16 03:20:37;;;;;;;;;;;21.20;54.60;;;;;;20743551;28;19925;-78
2022/06/16 03:30:38;;;;;;;;;;;21.20;54.60;;;;;;20738566;28;20263;-78
2022/06/16 03:40:39;;;;;;;;;;;21.20;54.60;;;;;;20771185;28;19918;-78
2022/06/16 03:50:41;;;;;;;;;;;21.20;54.60;;;;;;20737595;28;19914;-78
2022/06/16 04:00:42;;;;;;;;;;;21.20;54.60;;;;;;20736479;28;19925;-78
2022/06/16 04:10:45;;;;;;;;;;;21.20;54.60;;;;;;20736862;28;19914;-80
2022/06/16 04:20:46;;;;;;;;;;;21.10;54.60;;;;;;20748699;28;20371;-77
2022/06/16 04:31:05;;;;;;;;;;;21.10;54.60;;;;;;20749515;28;19925;-80
2022/06/16 04:41:08;;;;;;;;;;;21.10;54.60;;;;;;20752672;28;19918;-80
2022/06/16 04:51:10;;;;;;;;;;;21.10;54.60;;;;;;20720733;28;19917;-79
2022/06/16 05:01:13;;;;;;;;;;;21.10;54.60;;;;;;20727361;28;19918;-77
2022/06/16 05:11:34;;;;;;;;;;;21.10;54.60;;;;;;20742899;28;20376;-75
2022/06/16 05:21:53;;;;;;;;;;;21.10;54.60;;;;;;20713741;28;19917;-75
2022/06/16 05:32:01;;;;;;;;;;;21.10;54.50;;;;;;20717599;28;19928;-77
2022/06/16 05:42:08;;;;;;;;;;;21.10;54.50;;;;;;20723234;28;19917;-73
2022/06/16 05:52:27;;;;;;;;;;;21.10;54.50;;;;;;20740169;28;19918;-72
2022/06/16 06:02:41;;;;;;;;;;;21.10;54.60;;;;;;20738869;28;19921;-73
2022/06/16 06:23:02;;;;;;;;;;;21.10;54.60;;;;;;20730121;28;19918;-74
2022/06/16 06:33:04;;;;;;;;;;;21.10;54.50;;;;;;20727039;28;19918;-74
2022/06/16 06:43:05;;;;;;;;;;;21.10;54.50;;;;;;20753666;28;20391;-74
2022/06/16 06:53:08;;;;;;;;;;;21.10;54.40;;;;;;20753931;28;19921;-74
2022/06/16 07:03:09;;;;;;;;;;;21.10;54.30;;;;;;20720263;28;19918;-74
2022/06/16 07:13:09;;;;;;;;;;;21.20;54.30;;;;;;20738731;28;19985;-74
2022/06/16 07:23:11;;;;;;;;;;;21.20;54.30;;;;;;20734501;28;19917;-73
2022/06/16 07:33:12;;;;;;;;;;;21.20;54.20;;;;;;21138068;22;20283;-73
2022/06/16 07:43:12;;;;;;;;;;;21.20;54.10;;;;;;20847093;28;19936;-71
2022/06/16 07:53:13;;;;;;;;;;;21.20;54.00;;;;;;20828833;28;19928;-72
2022/06/16 08:03:13;;;;;;;;;;;21.30;54.00;;;;;;20834621;28;19912;-73
2022/06/16 08:13:14;;;;;;;;;;;21.30;53.90;;;;;;20825161;28;19921;-72
2022/06/16 08:23:15;;;;;;;;;;;21.30;53.90;;;;;;20821805;28;20156;-71
2022/06/16 08:33:15;;;;;;;;;;;21.20;53.70;;;;;;20824790;28;19929;-71
2022/06/16 08:43:22;;;;;;;;;;;21.30;53.90;;;;;;20836010;28;20269;-71
2022/06/16 08:53:45;;;;;;;;;;;21.30;53.80;;;;;;20811463;28;19927;-71
2022/06/16 09:03:46;;;;;;;;;;;21.30;53.60;;;;;;20823726;28;19913;-71
2022/06/16 09:14:00;;;;;;;;;;;21.40;53.40;;;;;;20838063;28;20015;-70
2022/06/16 09:24:04;;;;;;;;;;;21.40;53.40;;;;;;20810144;28;20260;-71
2022/06/16 09:34:09;;;;;;;;;;;21.40;53.30;;;;;;20865262;28;19925;-71
2022/06/16 09:44:14;;;;;;;;;;;21.40;53.30;;;;;;20793890;28;19960;-70
2022/06/16 09:54:29;;;;;;;;;;;21.40;53.30;;;;;;20826067;28;20023;-70
2022/06/16 10:04:30;;;;;;;;;;;21.40;53.40;;;;;;20827246;28;19935;-71
2022/06/16 10:14:51;;;;;;;;;;;21.40;53.30;;;;;;20842934;28;19921;-72
2022/06/16 10:25:07;;;;;;;;;;;21.40;53.30;;;;;;20833490;28;20282;-73
2022/06/16 10:35:10;;;;;;;;;;;21.40;53.10;;;;;;20836877;28;19928;-71
2022/06/16 10:45:15;;;;;;;;;;;21.40;53.10;;;;;;20834616;28;19913;-75
2022/06/16 10:55:19;;;;;;;;;;;21.40;53.00;;;;;;20803953;28;19925;-71
2022/06/16 11:05:19;;;;;;;;;;;21.40;52.70;;;;;;20832863;28;19948;-73
2022/06/16 11:15:21;;;;;;;;;;;21.40;52.30;;;;;;20818223;28;19972;-71
2022/06/16 11:25:23;;;;;;;;;;;21.40;52.00;;;;;;20840314;28;20350;-70
2022/06/16 11:35:26;;;;;;;;;;;21.50;52.30;;;;;;20851775;28;19921;-78
2022/06/16 11:45:39;;;;;;;;;;;21.60;52.40;;;;;;20843121;28;19919;-74
2022/06/16 11:55:41;;;;;;;;;;;21.60;52.40;;;;;;20865811;28;20421;-75
2022/06/16 12:05:47;;;;;;;;;;;21.50;52.50;;;;;;20819870;28;19979;-76
2022/06/16 12:15:58;;;;;;;;;;;21.60;52.60;;;;;;20851537;28;19928;-73
2022/06/16 12:26:18;;;;;;;;;;;21.50;52.60;;;;;;20806672;28;19982;-73
2022/06/16 12:36:22;;;;;;;;;;;21.60;52.70;;;;;;20867238;28;19967;-73
2022/06/16 12:46:23;;;;;;;;;;;21.60;52.60;;;;;;20844777;28;19916;-74
2022/06/16 12:56:44;;;;;;;;;;;21.60;52.60;;;;;;20827438;28;19959;-72
2022/06/16 13:06:45;;;;;;;;;;;21.70;52.50;;;;;;20831838;28;19939;-71
2022/06/16 13:16:49;;;;;;;;;;;21.70;52.50;;;;;;20818410;28;19925;-71
2022/06/16 13:27:06;;;;;;;;;;;21.70;52.40;;;;;;20823980;28;20498;-68
2022/06/16 13:37:07;;;;;;;;;;;21.80;52.40;;;;;;20830228;28;19921;-73
2022/06/16 13:47:14;;;;;;;;;;;21.80;52.30;;;;;;20808768;28;19919;-71
2022/06/16 13:57:21;;;;;;;;;;;21.80;52.10;;;;;;20839004;28;19925;-71
2022/06/16 14:07:22;;;;;;;;;;;21.90;52.10;;;;;;20792963;28;19957;-73
2022/06/16 14:17:26;;;;;;;;;;;21.90;52.20;;;;;;20842908;28;20320;-73
2022/06/16 14:27:43;;;;;;;;;;;22.00;52.20;;;;;;20837232;28;19979;-73
2022/06/16 14:38:01;;;;;;;;;;;22.00;52.10;;;;;;20865880;28;19921;-73
2022/06/16 14:48:03;;;;;;;;;;;22.10;52.00;;;;;;20833919;28;19959;-71
2022/06/16 14:58:04;;;;;;;;;;;22.20;52.00;;;;;;20849576;28;19920;-74
2022/06/16 15:08:04;;;;;;;;;;;22.30;52.00;;;;;;20837697;28;19913;-73
2022/06/16 15:18:11;;;;;;;;;;;22.30;51.90;;;;;;20815756;28;20291;-72
2022/06/16 15:28:14;;;;;;;;;;;22.40;51.80;;;;;;20840210;28;19912;-73
2022/06/16 15:38:15;;;;;;;;;;;22.50;51.70;;;;;;20826185;28;19987;-73
2022/06/16 15:48:15;;;;;;;;;;;22.50;51.60;;;;;;20815899;28;19944;-74
2022/06/16 15:58:20;;;;;;;;;;;22.60;51.50;;;;;;20775504;28;19928;-73
2022/06/16 16:08:24;;;;;;;;;;;22.60;51.30;;;;;;20775038;28;19967;-74
2022/06/16 16:18:27;;;;;;;;;;;22.70;51.20;;;;;;20791350;28;19925;-71
2022/06/16 16:28:29;;;;;;;;;;;22.70;51.10;;;;;;20791373;28;20368;-74
2022/06/16 16:38:35;;;;;;;;;;;22.80;51.10;;;;;;20804922;28;20363;-73
2022/06/16 16:48:51;;;;;;;;;;;22.80;51.10;;;;;;20796536;28;20306;-73
2022/06/16 16:58:53;;;;;;;;;;;22.80;51.00;;;;;;20825788;28;19932;-70
2022/06/16 17:08:54;;;;;;;;;;;22.80;50.90;;;;;;20833604;28;19920;-72
2022/06/16 17:18:54;;;;;;;;;;;22.80;50.90;;;;;;20832064;28;19925;-73
2022/06/16 17:28:55;;;;;;;;;;;22.80;50.90;;;;;;20809663;28;20705;-72
2022/06/16 17:38:56;;;;;;;;;;;22.80;50.70;;;;;;20814686;28;19948;-72
2022/06/16 17:48:57;;;;;;;;;;;22.70;50.40;;;;;;20810671;28;20405;-73
2022/06/16 18:09:17;;;;;;;;;;;22.80;50.30;;;;;;20814949;28;19942;-71
2022/06/16 18:19:18;;;;;;;;;;;22.70;50.30;;;;;;20844866;28;19953;-71
2022/06/16 18:29:18;;;;;;;;;;;22.60;50.40;;;;;;20845409;28;19913;-71
2022/06/16 18:39:19;;;;;;;;;;;22.60;50.60;;;;;;20854493;28;20192;-70
2022/06/16 18:49:19;;;;;;;;;;;22.50;50.70;;;;;;20828688;28;19913;-72
2022/06/16 18:59:20;;;;;;;;;;;22.40;50.90;;;;;;20827734;28;20331;-72
2022/06/16 19:09:20;;;;;;;;;;;22.40;51.10;;;;;;20858936;28;19913;-71
2022/06/16 19:19:21;;;;;;;;;;;22.40;51.30;;;;;;20857687;28;20634;-71
2022/06/16 19:29:21;;;;;;;;;;;22.30;51.40;;;;;;20853243;28;19971;-71
2022/06/16 19:39:22;;;;;;;;;;;22.20;51.50;;;;;;20815362;28;19925;-70
2022/06/16 19:59:42;;;;;;;;;;;22.20;51.80;;;;;;20820758;28;20370;-70
2022/06/16 20:09:43;;;;;;;;;;;22.20;51.90;;;;;;20857123;28;19959;-83
2022/06/16 20:19:43;;;;;;;;;;;22.10;52.00;;;;;;20835223;28;20026;-72
2022/06/16 20:29:47;;;;;;;;;;;22.10;52.10;;;;;;20856986;28;20018;-73
2022/06/16 20:39:47;;;;;;;;;;;22.10;52.10;;;;;;20838545;28;19922;-73
2022/06/16 20:49:50;;;;;;;;;;;22.00;52.20;;;;;;20845454;28;19912;-70
2022/06/16 21:10:17;;;;;;;;;;;22.00;52.40;;;;;;20842634;28;20397;-72
2022/06/16 21:20:28;;;;;;;;;;;22.00;53.20;;;;;;20871140;28;19944;-71
2022/06/16 21:30:29;;;;;;;;;;;22.00;52.60;;;;;;20814033;28;19952;-70
2022/06/16 21:40:33;;;;;;;;;;;21.90;52.70;;;;;;20825491;28;19963;-72
2022/06/16 21:50:35;;;;;;;;;;;21.90;52.70;;;;;;20866426;28;19913;-70
2022/06/16 22:00:35;;;;;;;;;;;21.90;52.80;;;;;;20816510;28;19921;-70
2022/06/16 22:10:36;;;;;;;;;;;21.90;52.90;;;;;;20832980;28;20332;-70
2022/06/16 22:20:38;;;;;;;;;;;21.90;52.90;;;;;;20827207;28;19921;-72
2022/06/16 22:30:38;;;;;;;;;;;21.90;53.00;;;;;;20812134;28;19979;-70
2022/06/16 22:40:39;;;;;;;;;;;21.80;53.00;;;;;;20807298;28;19921;-70
2022/06/16 22:50:39;;;;;;;;;;;21.80;53.00;;;;;;20844503;28;19916;-72
2022/06/16 23:00:40;;;;;;;;;;;21.80;53.10;;;;;;20861627;28;20490;-71
2022/06/16 23:10:42;;;;;;;;;;;21.80;53.10;;;;;;20851340;28;21588;-71
2022/06/16 23:20:43;;;;;;;;;;;21.80;53.20;;;;;;20839913;28;19940;-70
2022/06/16 23:30:46;;;;;;;;;;;21.80;53.20;;;;;;20846020;28;19917;-70
2022/06/16 23:40:46;;;;;;;;;;;21.70;53.20;;;;;;20840490;28;19917;-71
2022/06/16 23:50:51;;;;;;;;;;;21.70;53.30;;;;;;20845811;28;19943;-70
